sensor_id;sensor_type;location;lat;lon;timestamp;pressure;altitude;pressure_sealevel;temperature;humidity
57885;BME280;43703;51.060;-0.086;2023-03-30T00:00:37;98938.38;;;7.98;96.60
57885;BME280;43703;51.060;-0.086;2023-03-30T00:03:03;98947.94;;;7.43;96.55
57885;BME280;43703;51.060;-0.086;2023-03-30T00:05:28;98941.81;;;7.45;98.46
57885;BME280;43703;51.060;-0.086;2023-03-30T00:07:54;98943.89;;;7.48;97.18
57885;BME280;43703;51.060;-0.086;2023-03-30T00:10:19;98946.97;;;7.73;96.45
57885;BME280;43703;51.060;-0.086;2023-03-30T00:12:44;98944.36;;;7.92;96.77
57885;BME280;43703;51.060;-0.086;2023-03-30T00:15:16;98944.46;;;7.77;95.69
57885;BME280;43703;51.060;-0.086;2023-03-30T00:17:35;98950.60;;;7.89;96.04
57885;BME280;43703;51.060;-0.086;2023-03-30T00:20:01;98941.53;;;7.84;95.96
57885;BME280;43703;51.060;-0.086;2023-03-30T00:22:26;98928.29;;;8.11;92.51
57885;BME280;43703;51.060;-0.086;2023-03-30T00:24:51;98928.19;;;7.48;94.91
57885;BME280;43703;51.060;-0.086;2023-03-30T00:27:17;98921.82;;;7.52;94.19
57885;BME280;43703;51.060;-0.086;2023-03-30T00:29:42;98923.22;;;7.61;95.15
57885;BME280;43703;51.060;-0.086;2023-03-30T00:32:07;98922.52;;;7.74;95.27
57885;BME280;43703;51.060;-0.086;2023-03-30T00:34:33;98917.62;;;7.90;93.47
57885;BME280;43703;51.060;-0.086;2023-03-30T00:36:58;98912.46;;;7.25;94.64
57885;BME280;43703;51.060;-0.086;2023-03-30T00:39:24;98915.06;;;7.30;95.23
57885;BME280;43703;51.060;-0.086;2023-03-30T00:41:50;98926.20;;;7.65;95.86
57885;BME280;43703;51.060;-0.086;2023-03-30T00:46:40;98900.59;;;6.77;98.04
57885;BME280;43703;51.060;-0.086;2023-03-30T00:49:08;98904.19;;;7.20;97.49
57885;BME280;43703;51.060;-0.086;2023-03-30T00:51:35;98902.55;;;7.48;95.51
57885;BME280;43703;51.060;-0.086;2023-03-30T00:54:01;98899.66;;;7.17;94.41
57885;BME280;43703;51.060;-0.086;2023-03-30T00:56:27;98907.59;;;6.96;94.88
57885;BME280;43703;51.060;-0.086;2023-03-30T00:58:49;98906.86;;;7.21;96.14
57885;BME280;43703;51.060;-0.086;2023-03-30T01:01:15;98910.87;;;7.24;96.18
57885;BME280;43703;51.060;-0.086;2023-03-30T01:03:41;98906.29;;;7.47;95.94
57885;BME280;43703;51.060;-0.086;2023-03-30T01:06:05;98906.97;;;7.19;93.37
57885;BME280;43703;51.060;-0.086;2023-03-30T01:08:30;98903.29;;;7.37;94.34
57885;BME280;43703;51.060;-0.086;2023-03-30T01:10:54;98916.55;;;7.68;93.86
57885;BME280;43703;51.060;-0.086;2023-03-30T01:13:20;98911.75;;;8.03;91.06
57885;BME280;43703;51.060;-0.086;2023-03-30T01:15:55;98906.23;;;6.59;95.97
57885;BME280;43703;51.060;-0.086;2023-03-30T01:18:20;98913.21;;;7.26;93.55
57885;BME280;43703;51.060;-0.086;2023-03-30T01:25:35;98895.99;;;7.46;93.34
57885;BME280;43703;51.060;-0.086;2023-03-30T01:28:09;98897.88;;;7.43;92.29
57885;BME280;43703;51.060;-0.086;2023-03-30T01:30:29;98893.51;;;6.95;92.73
57885;BME280;43703;51.060;-0.086;2023-03-30T01:32:55;98890.27;;;7.52;92.77
57885;BME280;43703;51.060;-0.086;2023-03-30T01:37:50;98885.29;;;7.05;92.05
57885;BME280;43703;51.060;-0.086;2023-03-30T01:40:03;98895.89;;;7.81;92.76
57885;BME280;43703;51.060;-0.086;2023-03-30T01:42:32;98887.00;;;7.19;93.16
57885;BME280;43703;51.060;-0.086;2023-03-30T01:44:55;98886.18;;;7.31;90.64
57885;BME280;43703;51.060;-0.086;2023-03-30T01:47:19;98895.91;;;7.50;89.84
57885;BME280;43703;51.060;-0.086;2023-03-30T01:49:44;98893.08;;;7.15;92.42
57885;BME280;43703;51.060;-0.086;2023-03-30T01:52:12;98894.31;;;6.96;91.61
57885;BME280;43703;51.060;-0.086;2023-03-30T01:54:35;98898.31;;;7.38;90.41
57885;BME280;43703;51.060;-0.086;2023-03-30T01:57:00;98896.78;;;7.44;91.93
57885;BME280;43703;51.060;-0.086;2023-03-30T01:59:25;98893.61;;;6.75;94.37
57885;BME280;43703;51.060;-0.086;2023-03-30T02:01:51;98903.62;;;6.34;97.90
57885;BME280;43703;51.060;-0.086;2023-03-30T02:04:13;98915.79;;;6.63;96.25
57885;BME280;43703;51.060;-0.086;2023-03-30T02:06:43;98921.82;;;6.97;97.16
57885;BME280;43703;51.060;-0.086;2023-03-30T02:09:05;98922.09;;;6.96;93.92
57885;BME280;43703;51.060;-0.086;2023-03-30T02:11:30;98920.92;;;7.99;91.08
57885;BME280;43703;51.060;-0.086;2023-03-30T02:13:55;98922.58;;;7.22;90.61
57885;BME280;43703;51.060;-0.086;2023-03-30T02:16:27;98924.41;;;6.97;93.58
57885;BME280;43703;51.060;-0.086;2023-03-30T02:18:46;98921.95;;;7.29;91.65
57885;BME280;43703;51.060;-0.086;2023-03-30T02:21:11;98921.59;;;7.68;89.17
57885;BME280;43703;51.060;-0.086;2023-03-30T02:23:38;98926.46;;;7.71;88.74
57885;BME280;43703;51.060;-0.086;2023-03-30T02:26:01;98923.64;;;7.56;90.38
57885;BME280;43703;51.060;-0.086;2023-03-30T02:28:27;98924.10;;;6.66;92.52
57885;BME280;43703;51.060;-0.086;2023-03-30T02:30:52;98923.95;;;7.16;93.77
57885;BME280;43703;51.060;-0.086;2023-03-30T02:33:23;98921.79;;;7.19;91.73
57885;BME280;43703;51.060;-0.086;2023-03-30T02:35:53;98924.76;;;7.15;90.88
57885;BME280;43703;51.060;-0.086;2023-03-30T02:38:18;98916.23;;;7.39;88.48
57885;BME280;43703;51.060;-0.086;2023-03-30T02:40:41;98916.64;;;8.00;86.85
57885;BME280;43703;51.060;-0.086;2023-03-30T02:43:11;98915.24;;;7.47;85.66
57885;BME280;43703;51.060;-0.086;2023-03-30T02:45:32;98921.70;;;7.97;84.30
57885;BME280;43703;51.060;-0.086;2023-03-30T02:47:59;98919.01;;;7.28;88.49
57885;BME280;43703;51.060;-0.086;2023-03-30T02:50:18;98913.45;;;7.28;90.97
57885;BME280;43703;51.060;-0.086;2023-03-30T02:52:49;98912.41;;;7.09;90.37
57885;BME280;43703;51.060;-0.086;2023-03-30T02:55:12;98910.19;;;7.36;88.79
57885;BME280;43703;51.060;-0.086;2023-03-30T02:57:38;98915.09;;;7.58;86.88
57885;BME280;43703;51.060;-0.086;2023-03-30T03:00:00;98913.85;;;6.97;88.82
57885;BME280;43703;51.060;-0.086;2023-03-30T03:02:24;98912.77;;;7.35;88.82
57885;BME280;43703;51.060;-0.086;2023-03-30T03:04:49;98911.85;;;7.80;85.29
57885;BME280;43703;51.060;-0.086;2023-03-30T03:07:13;98912.79;;;6.88;89.85
57885;BME280;43703;51.060;-0.086;2023-03-30T03:09:38;98913.27;;;6.93;89.90
57885;BME280;43703;51.060;-0.086;2023-03-30T03:12:05;98915.85;;;7.33;87.22
57885;BME280;43703;51.060;-0.086;2023-03-30T03:14:30;98918.95;;;7.22;89.96
57885;BME280;43703;51.060;-0.086;2023-03-30T03:16:55;98918.60;;;7.22;90.59
57885;BME280;43703;51.060;-0.086;2023-03-30T03:19:20;98919.05;;;6.84;90.49
57885;BME280;43703;51.060;-0.086;2023-03-30T03:21:46;98921.35;;;7.37;89.41
57885;BME280;43703;51.060;-0.086;2023-03-30T03:24:11;98925.07;;;7.32;88.95
57885;BME280;43703;51.060;-0.086;2023-03-30T03:26:36;98927.84;;;7.06;91.65
57885;BME280;43703;51.060;-0.086;2023-03-30T03:29:02;98927.75;;;7.07;92.33
57885;BME280;43703;51.060;-0.086;2023-03-30T03:31:27;98926.57;;;6.84;94.19
57885;BME280;43703;51.060;-0.086;2023-03-30T03:33:52;98932.45;;;7.22;92.99
57885;BME280;43703;51.060;-0.086;2023-03-30T03:36:18;98940.28;;;6.57;95.28
57885;BME280;43703;51.060;-0.086;2023-03-30T03:38:43;98936.44;;;6.53;94.80
57885;BME280;43703;51.060;-0.086;2023-03-30T03:41:08;98938.17;;;7.12;92.20
57885;BME280;43703;51.060;-0.086;2023-03-30T03:43:33;98938.73;;;7.46;90.80
57885;BME280;43703;51.060;-0.086;2023-03-30T03:45:58;98933.61;;;7.07;90.59
57885;BME280;43703;51.060;-0.086;2023-03-30T03:48:24;98940.45;;;7.37;90.61
57885;BME280;43703;51.060;-0.086;2023-03-30T03:50:51;98940.37;;;6.81;91.21
57885;BME280;43703;51.060;-0.086;2023-03-30T03:53:15;98934.97;;;6.42;92.84
57885;BME280;43703;51.060;-0.086;2023-03-30T03:55:40;98939.20;;;6.83;93.49
57885;BME280;43703;51.060;-0.086;2023-03-30T03:58:06;98937.10;;;6.55;93.85
57885;BME280;43703;51.060;-0.086;2023-03-30T04:00:31;98947.75;;;7.22;91.19
57885;BME280;43703;51.060;-0.086;2023-03-30T04:02:56;98946.97;;;7.60;87.48
57885;BME280;43703;51.060;-0.086;2023-03-30T04:05:21;98951.54;;;7.85;87.07
57885;BME280;43703;51.060;-0.086;2023-03-30T04:07:47;98954.42;;;6.68;88.87
57885;BME280;43703;51.060;-0.086;2023-03-30T04:10:12;98957.20;;;6.84;88.91
57885;BME280;43703;51.060;-0.086;2023-03-30T04:12:37;98965.04;;;7.19;86.66
57885;BME280;43703;51.060;-0.086;2023-03-30T04:15:03;98963.83;;;6.88;89.31
57885;BME280;43703;51.060;-0.086;2023-03-30T04:17:28;98962.62;;;7.16;85.93
57885;BME280;43703;51.060;-0.086;2023-03-30T04:19:53;98960.94;;;7.29;87.32
57885;BME280;43703;51.060;-0.086;2023-03-30T04:22:18;98960.24;;;6.78;87.63
57885;BME280;43703;51.060;-0.086;2023-03-30T04:24:43;98962.39;;;7.14;87.82
57885;BME280;43703;51.060;-0.086;2023-03-30T04:27:09;98953.80;;;6.79;86.46
57885;BME280;43703;51.060;-0.086;2023-03-30T04:29:34;98961.52;;;6.68;86.73
57885;BME280;43703;51.060;-0.086;2023-03-30T04:32:00;98959.94;;;7.02;86.18
57885;BME280;43703;51.060;-0.086;2023-03-30T04:34:25;98958.45;;;6.88;86.52
57885;BME280;43703;51.060;-0.086;2023-03-30T04:36:51;98966.37;;;6.62;88.13
57885;BME280;43703;51.060;-0.086;2023-03-30T04:39:16;98968.09;;;7.07;85.71
57885;BME280;43703;51.060;-0.086;2023-03-30T04:41:41;98972.19;;;6.71;86.55
57885;BME280;43703;51.060;-0.086;2023-03-30T04:44:08;98970.99;;;6.74;85.39
57885;BME280;43703;51.060;-0.086;2023-03-30T04:46:32;98975.49;;;7.34;84.87
57885;BME280;43703;51.060;-0.086;2023-03-30T04:48:57;98975.54;;;6.70;88.57
57885;BME280;43703;51.060;-0.086;2023-03-30T04:51:23;98979.43;;;7.47;84.28
57885;BME280;43703;51.060;-0.086;2023-03-30T04:53:49;98976.45;;;7.22;86.72
57885;BME280;43703;51.060;-0.086;2023-03-30T04:56:14;98981.89;;;7.62;84.16
57885;BME280;43703;51.060;-0.086;2023-03-30T04:58:40;98981.19;;;7.22;85.44
57885;BME280;43703;51.060;-0.086;2023-03-30T05:01:06;98981.76;;;7.43;86.23
57885;BME280;43703;51.060;-0.086;2023-03-30T05:03:31;98974.45;;;6.39;87.83
57885;BME280;43703;51.060;-0.086;2023-03-30T05:05:57;98979.10;;;6.39;88.36
57885;BME280;43703;51.060;-0.086;2023-03-30T05:08:22;98985.54;;;6.84;88.43
57885;BME280;43703;51.060;-0.086;2023-03-30T05:10:47;98987.42;;;7.16;86.96
57885;BME280;43703;51.060;-0.086;2023-03-30T05:13:12;98986.21;;;7.14;87.55
57885;BME280;43703;51.060;-0.086;2023-03-30T05:15:37;98994.47;;;6.24;90.12
57885;BME280;43703;51.060;-0.086;2023-03-30T05:18:04;98996.02;;;6.38;89.45
57885;BME280;43703;51.060;-0.086;2023-03-30T05:20:28;99003.20;;;7.26;86.24
57885;BME280;43703;51.060;-0.086;2023-03-30T05:22:53;99008.18;;;6.87;87.41
57885;BME280;43703;51.060;-0.086;2023-03-30T05:25:19;99009.11;;;7.12;84.94
57885;BME280;43703;51.060;-0.086;2023-03-30T05:27:44;99016.76;;;7.64;85.21
57885;BME280;43703;51.060;-0.086;2023-03-30T05:30:11;99020.99;;;6.83;88.94
57885;BME280;43703;51.060;-0.086;2023-03-30T05:32:35;99026.39;;;6.69;88.02
57885;BME280;43703;51.060;-0.086;2023-03-30T05:35:01;99032.16;;;6.68;87.64
57885;BME280;43703;51.060;-0.086;2023-03-30T05:37:26;99029.33;;;7.64;84.13
57885;BME280;43703;51.060;-0.086;2023-03-30T05:39:52;99033.62;;;6.62;88.27
57885;BME280;43703;51.060;-0.086;2023-03-30T05:42:17;99039.64;;;7.28;85.29
57885;BME280;43703;51.060;-0.086;2023-03-30T05:44:43;99040.88;;;8.06;82.26
57885;BME280;43703;51.060;-0.086;2023-03-30T05:47:09;99046.09;;;6.76;86.70
57885;BME280;43703;51.060;-0.086;2023-03-30T05:49:34;99048.23;;;7.48;84.51
57885;BME280;43703;51.060;-0.086;2023-03-30T05:52:00;99051.46;;;7.56;83.85
57885;BME280;43703;51.060;-0.086;2023-03-30T05:54:25;99052.72;;;6.78;85.29
57885;BME280;43703;51.060;-0.086;2023-03-30T05:56:51;99056.57;;;7.30;83.17
57885;BME280;43703;51.060;-0.086;2023-03-30T05:59:16;99060.95;;;7.53;85.52
57885;BME280;43703;51.060;-0.086;2023-03-30T06:01:42;99057.40;;;6.69;88.46
57885;BME280;43703;51.060;-0.086;2023-03-30T06:04:07;99068.33;;;6.32;90.00
57885;BME280;43703;51.060;-0.086;2023-03-30T06:06:32;99066.94;;;6.86;89.08
57885;BME280;43703;51.060;-0.086;2023-03-30T06:08:58;99067.19;;;6.93;87.73
57885;BME280;43703;51.060;-0.086;2023-03-30T06:11:23;99061.37;;;7.19;86.07
57885;BME280;43703;51.060;-0.086;2023-03-30T06:13:49;99059.45;;;8.12;82.24
57885;BME280;43703;51.060;-0.086;2023-03-30T06:16:14;99065.21;;;7.09;86.07
57885;BME280;43703;51.060;-0.086;2023-03-30T06:18:39;99061.75;;;7.24;89.26
57885;BME280;43703;51.060;-0.086;2023-03-30T06:21:07;99067.19;;;7.37;87.60
57885;BME280;43703;51.060;-0.086;2023-03-30T06:23:30;99068.65;;;6.57;89.74
57885;BME280;43703;51.060;-0.086;2023-03-30T06:25:56;99069.71;;;6.81;89.78
57885;BME280;43703;51.060;-0.086;2023-03-30T06:28:26;99073.01;;;7.06;89.65
57885;BME280;43703;51.060;-0.086;2023-03-30T06:30:47;99078.30;;;6.62;90.00
57885;BME280;43703;51.060;-0.086;2023-03-30T06:33:13;99078.93;;;6.39;92.58
57885;BME280;43703;51.060;-0.086;2023-03-30T06:35:38;99081.68;;;7.40;88.86
57885;BME280;43703;51.060;-0.086;2023-03-30T06:38:03;99083.63;;;6.75;92.38
57885;BME280;43703;51.060;-0.086;2023-03-30T06:40:29;99084.68;;;7.00;91.79
57885;BME280;43703;51.060;-0.086;2023-03-30T06:42:54;99086.68;;;7.28;89.70
57885;BME280;43703;51.060;-0.086;2023-03-30T06:45:20;99091.70;;;7.34;89.51
57885;BME280;43703;51.060;-0.086;2023-03-30T06:47:45;99095.43;;;8.10;87.51
57885;BME280;43703;51.060;-0.086;2023-03-30T06:50:11;99091.73;;;6.81;91.44
57885;BME280;43703;51.060;-0.086;2023-03-30T06:52:37;99100.94;;;7.05;91.60
57885;BME280;43703;51.060;-0.086;2023-03-30T06:55:02;99103.05;;;7.09;89.65
57885;BME280;43703;51.060;-0.086;2023-03-30T06:57:27;99111.74;;;7.09;91.78
57885;BME280;43703;51.060;-0.086;2023-03-30T06:59:53;99118.56;;;7.83;87.94
57885;BME280;43703;51.060;-0.086;2023-03-30T07:02:19;99120.52;;;8.14;85.77
57885;BME280;43703;51.060;-0.086;2023-03-30T07:04:44;99121.50;;;7.36;88.08
57885;BME280;43703;51.060;-0.086;2023-03-30T07:07:10;99124.25;;;6.70;89.68
57885;BME280;43703;51.060;-0.086;2023-03-30T07:09:35;99129.07;;;6.57;91.31
57885;BME280;43703;51.060;-0.086;2023-03-30T07:12:01;99129.59;;;7.03;90.62
57885;BME280;43703;51.060;-0.086;2023-03-30T07:14:26;99127.17;;;7.17;88.58
57885;BME280;43703;51.060;-0.086;2023-03-30T07:16:52;99126.66;;;7.27;88.27
57885;BME280;43703;51.060;-0.086;2023-03-30T07:19:18;99127.80;;;7.34;88.49
57885;BME280;43703;51.060;-0.086;2023-03-30T07:21:43;99131.53;;;7.37;87.69
57885;BME280;43703;51.060;-0.086;2023-03-30T07:24:08;99128.26;;;7.55;88.20
57885;BME280;43703;51.060;-0.086;2023-03-30T07:26:34;99130.73;;;8.00;85.56
57885;BME280;43703;51.060;-0.086;2023-03-30T07:29:00;99129.03;;;7.74;86.53
57885;BME280;43703;51.060;-0.086;2023-03-30T07:31:25;99131.26;;;7.38;87.06
57885;BME280;43703;51.060;-0.086;2023-03-30T07:33:50;99134.16;;;7.28;89.45
57885;BME280;43703;51.060;-0.086;2023-03-30T07:36:15;99140.43;;;7.48;88.68
57885;BME280;43703;51.060;-0.086;2023-03-30T07:38:40;99137.42;;;6.98;88.75
57885;BME280;43703;51.060;-0.086;2023-03-30T07:41:07;99136.94;;;7.21;87.76
57885;BME280;43703;51.060;-0.086;2023-03-30T07:43:31;99152.09;;;7.04;91.69
57885;BME280;43703;51.060;-0.086;2023-03-30T07:45:56;99153.78;;;7.12;90.40
57885;BME280;43703;51.060;-0.086;2023-03-30T07:48:22;99151.66;;;7.65;89.96
57885;BME280;43703;51.060;-0.086;2023-03-30T07:50:47;99154.48;;;7.31;89.68
57885;BME280;43703;51.060;-0.086;2023-03-30T07:53:12;99156.57;;;7.45;88.19
57885;BME280;43703;51.060;-0.086;2023-03-30T07:55:38;99154.82;;;8.02;85.50
57885;BME280;43703;51.060;-0.086;2023-03-30T07:58:03;99159.42;;;8.44;84.97
57885;BME280;43703;51.060;-0.086;2023-03-30T08:00:28;99157.42;;;8.21;84.83
57885;BME280;43703;51.060;-0.086;2023-03-30T08:02:53;99162.05;;;7.37;87.93
57885;BME280;43703;51.060;-0.086;2023-03-30T08:05:19;99164.71;;;7.72;86.13
57885;BME280;43703;51.060;-0.086;2023-03-30T08:07:45;99167.08;;;7.55;86.02
57885;BME280;43703;51.060;-0.086;2023-03-30T08:10:11;99168.38;;;7.45;86.20
57885;BME280;43703;51.060;-0.086;2023-03-30T08:12:35;99172.20;;;7.43;88.00
57885;BME280;43703;51.060;-0.086;2023-03-30T08:15:01;99172.14;;;8.18;84.87
57885;BME280;43703;51.060;-0.086;2023-03-30T08:17:27;99171.65;;;8.12;85.58
57885;BME280;43703;51.060;-0.086;2023-03-30T08:19:52;99174.15;;;8.01;83.91
57885;BME280;43703;51.060;-0.086;2023-03-30T08:22:18;99180.51;;;7.46;86.83
57885;BME280;43703;51.060;-0.086;2023-03-30T08:24:44;99186.69;;;7.23;89.93
57885;BME280;43703;51.060;-0.086;2023-03-30T08:27:09;99182.02;;;7.83;87.91
57885;BME280;43703;51.060;-0.086;2023-03-30T08:29:34;99180.25;;;6.98;88.98
57885;BME280;43703;51.060;-0.086;2023-03-30T08:31:59;99188.31;;;7.11;89.55
57885;BME280;43703;51.060;-0.086;2023-03-30T08:34:25;99189.44;;;7.50;88.93
57885;BME280;43703;51.060;-0.086;2023-03-30T08:36:51;99192.51;;;6.76;92.09
57885;BME280;43703;51.060;-0.086;2023-03-30T08:39:16;99194.36;;;6.75;91.18
57885;BME280;43703;51.060;-0.086;2023-03-30T08:41:51;99189.25;;;7.69;88.01
57885;BME280;43703;51.060;-0.086;2023-03-30T08:44:11;99194.03;;;8.03;85.76
57885;BME280;43703;51.060;-0.086;2023-03-30T08:46:37;99199.54;;;7.82;88.48
57885;BME280;43703;51.060;-0.086;2023-03-30T08:49:00;99200.26;;;8.01;86.81
57885;BME280;43703;51.060;-0.086;2023-03-30T08:51:26;99207.83;;;8.09;86.69
57885;BME280;43703;51.060;-0.086;2023-03-30T08:53:54;99213.93;;;7.70;88.45
57885;BME280;43703;51.060;-0.086;2023-03-30T08:56:16;99211.98;;;7.76;88.52
57885;BME280;43703;51.060;-0.086;2023-03-30T08:58:46;99219.37;;;7.02;90.08
57885;BME280;43703;51.060;-0.086;2023-03-30T09:01:13;99211.64;;;7.89;88.20
57885;BME280;43703;51.060;-0.086;2023-03-30T09:03:37;99208.69;;;8.27;87.70
57885;BME280;43703;51.060;-0.086;2023-03-30T09:06:02;99208.65;;;8.73;83.80
57885;BME280;43703;51.060;-0.086;2023-03-30T09:08:23;99209.91;;;9.22;82.95
57885;BME280;43703;51.060;-0.086;2023-03-30T09:10:52;99215.09;;;8.90;82.50
57885;BME280;43703;51.060;-0.086;2023-03-30T09:13:15;99214.83;;;8.01;84.63
57885;BME280;43703;51.060;-0.086;2023-03-30T09:15:41;99219.34;;;7.68;86.11
57885;BME280;43703;51.060;-0.086;2023-03-30T09:18:11;99213.30;;;7.86;86.25
57885;BME280;43703;51.060;-0.086;2023-03-30T09:20:31;99219.40;;;7.73;88.11
57885;BME280;43703;51.060;-0.086;2023-03-30T09:22:59;99216.70;;;8.11;86.24
57885;BME280;43703;51.060;-0.086;2023-03-30T09:25:26;99230.78;;;7.72;88.08
57885;BME280;43703;51.060;-0.086;2023-03-30T09:27:52;99223.69;;;7.51;89.63
57885;BME280;43703;51.060;-0.086;2023-03-30T09:30:17;99228.25;;;7.89;88.43
57885;BME280;43703;51.060;-0.086;2023-03-30T09:32:40;99236.82;;;7.64;90.93
57885;BME280;43703;51.060;-0.086;2023-03-30T09:35:04;99231.31;;;7.76;89.85
57885;BME280;43703;51.060;-0.086;2023-03-30T09:37:27;99230.37;;;8.40;89.84
57885;BME280;43703;51.060;-0.086;2023-03-30T09:39:53;99234.64;;;8.04;91.00
57885;BME280;43703;51.060;-0.086;2023-03-30T09:42:26;99231.96;;;8.72;88.93
57885;BME280;43703;51.060;-0.086;2023-03-30T09:44:47;99232.18;;;8.93;85.15
57885;BME280;43703;51.060;-0.086;2023-03-30T09:47:19;99237.44;;;8.92;84.52
57885;BME280;43703;51.060;-0.086;2023-03-30T09:49:37;99233.67;;;9.42;84.63
57885;BME280;43703;51.060;-0.086;2023-03-30T09:52:02;99231.64;;;8.51;85.37
57885;BME280;43703;51.060;-0.086;2023-03-30T09:54:35;99231.81;;;9.72;81.81
57885;BME280;43703;51.060;-0.086;2023-03-30T09:56:53;99233.95;;;9.28;83.33
57885;BME280;43703;51.060;-0.086;2023-03-30T10:01:41;99240.94;;;8.58;85.65
57885;BME280;43703;51.060;-0.086;2023-03-30T10:04:09;99238.67;;;8.19;87.41
57885;BME280;43703;51.060;-0.086;2023-03-30T10:06:36;99242.73;;;8.39;86.59
57885;BME280;43703;51.060;-0.086;2023-03-30T10:08:57;99244.92;;;8.46;88.08
57885;BME280;43703;51.060;-0.086;2023-03-30T10:11:33;99239.76;;;7.99;87.96
57885;BME280;43703;51.060;-0.086;2023-03-30T10:13:49;99243.29;;;8.66;86.23
57885;BME280;43703;51.060;-0.086;2023-03-30T10:16:22;99242.07;;;8.60;85.60
57885;BME280;43703;51.060;-0.086;2023-03-30T10:18:41;99240.75;;;8.26;88.38
57885;BME280;43703;51.060;-0.086;2023-03-30T10:21:06;99253.18;;;8.57;87.75
57885;BME280;43703;51.060;-0.086;2023-03-30T10:23:30;99249.24;;;8.93;85.15
57885;BME280;43703;51.060;-0.086;2023-03-30T10:26:00;99247.57;;;9.06;84.62
57885;BME280;43703;51.060;-0.086;2023-03-30T10:28:25;99254.15;;;8.43;87.70
57885;BME280;43703;51.060;-0.086;2023-03-30T10:30:49;99267.30;;;8.76;86.39
57885;BME280;43703;51.060;-0.086;2023-03-30T10:33:10;99268.21;;;8.45;88.92
57885;BME280;43703;51.060;-0.086;2023-03-30T10:35:36;99267.12;;;8.06;88.57
57885;BME280;43703;51.060;-0.086;2023-03-30T10:38:05;99272.21;;;7.99;89.28
57885;BME280;43703;51.060;-0.086;2023-03-30T10:40:32;99272.22;;;8.83;85.60
57885;BME280;43703;51.060;-0.086;2023-03-30T10:42:54;99263.54;;;8.27;88.36
57885;BME280;43703;51.060;-0.086;2023-03-30T10:45:21;99267.75;;;8.17;88.39
57885;BME280;43703;51.060;-0.086;2023-03-30T10:47:52;99267.14;;;8.76;88.85
57885;BME280;43703;51.060;-0.086;2023-03-30T10:50:15;99267.13;;;8.53;89.23
57885;BME280;43703;51.060;-0.086;2023-03-30T10:52:40;99264.05;;;8.71;86.54
57885;BME280;43703;51.060;-0.086;2023-03-30T10:55:03;99266.76;;;9.04;86.84
57885;BME280;43703;51.060;-0.086;2023-03-30T10:57:31;99266.40;;;8.38;91.44
57885;BME280;43703;51.060;-0.086;2023-03-30T10:59:58;99265.24;;;8.40;91.05
57885;BME280;43703;51.060;-0.086;2023-03-30T11:02:27;99264.15;;;9.10;85.41
57885;BME280;43703;51.060;-0.086;2023-03-30T11:04:43;99263.14;;;10.08;84.59
57885;BME280;43703;51.060;-0.086;2023-03-30T11:07:12;99255.62;;;9.12;85.77
57885;BME280;43703;51.060;-0.086;2023-03-30T11:09:37;99258.21;;;10.24;85.28
57885;BME280;43703;51.060;-0.086;2023-03-30T11:12:01;99257.11;;;9.82;82.02
57885;BME280;43703;51.060;-0.086;2023-03-30T11:14:26;99259.22;;;9.19;84.32
57885;BME280;43703;51.060;-0.086;2023-03-30T11:16:52;99256.67;;;8.23;87.72
57885;BME280;43703;51.060;-0.086;2023-03-30T11:19:19;99259.90;;;8.75;86.31
57885;BME280;43703;51.060;-0.086;2023-03-30T11:21:45;99252.51;;;8.72;86.66
57885;BME280;43703;51.060;-0.086;2023-03-30T11:24:10;99253.64;;;9.66;85.64
57885;BME280;43703;51.060;-0.086;2023-03-30T11:26:36;99255.74;;;8.89;86.14
57885;BME280;43703;51.060;-0.086;2023-03-30T11:29:05;99247.68;;;9.01;86.58
57885;BME280;43703;51.060;-0.086;2023-03-30T11:31:31;99266.90;;;9.42;84.47
57885;BME280;43703;51.060;-0.086;2023-03-30T11:33:52;99260.57;;;8.84;86.80
57885;BME280;43703;51.060;-0.086;2023-03-30T11:36:15;99253.05;;;8.80;87.10
57885;BME280;43703;51.060;-0.086;2023-03-30T11:38:42;99253.33;;;8.45;88.62
57885;BME280;43703;51.060;-0.086;2023-03-30T11:41:09;99252.81;;;8.41;89.27
57885;BME280;43703;51.060;-0.086;2023-03-30T11:43:29;99260.26;;;8.86;89.32
57885;BME280;43703;51.060;-0.086;2023-03-30T11:46:00;99260.83;;;8.76;88.09
57885;BME280;43703;51.060;-0.086;2023-03-30T11:48:34;99247.80;;;8.77;87.97
57885;BME280;43703;51.060;-0.086;2023-03-30T11:50:58;99259.63;;;8.83;87.09
57885;BME280;43703;51.060;-0.086;2023-03-30T11:53:17;99262.14;;;8.42;89.29
57885;BME280;43703;51.060;-0.086;2023-03-30T11:55:46;99257.16;;;8.55;91.02
57885;BME280;43703;51.060;-0.086;2023-03-30T11:58:09;99251.42;;;8.59;91.04
57885;BME280;43703;51.060;-0.086;2023-03-30T12:00:41;99254.71;;;9.59;89.14
57885;BME280;43703;51.060;-0.086;2023-03-30T12:02:59;99260.13;;;8.66;87.68
57885;BME280;43703;51.060;-0.086;2023-03-30T12:05:21;99254.50;;;9.05;86.36
57885;BME280;43703;51.060;-0.086;2023-03-30T12:07:49;99255.13;;;9.45;86.24
57885;BME280;43703;51.060;-0.086;2023-03-30T12:10:13;99263.31;;;9.31;85.91
57885;BME280;43703;51.060;-0.086;2023-03-30T12:12:36;99254.93;;;8.70;88.17
57885;BME280;43703;51.060;-0.086;2023-03-30T12:15:08;99256.23;;;8.92;84.42
57885;BME280;43703;51.060;-0.086;2023-03-30T12:17:33;99254.27;;;8.99;86.15
57885;BME280;43703;51.060;-0.086;2023-03-30T12:19:54;99251.24;;;8.86;85.05
57885;BME280;43703;51.060;-0.086;2023-03-30T12:22:21;99248.69;;;8.81;83.40
57885;BME280;43703;51.060;-0.086;2023-03-30T12:24:46;99249.28;;;8.78;83.90
57885;BME280;43703;51.060;-0.086;2023-03-30T12:27:08;99246.69;;;8.58;85.85
57885;BME280;43703;51.060;-0.086;2023-03-30T12:29:43;99259.12;;;8.52;87.32
57885;BME280;43703;51.060;-0.086;2023-03-30T12:34:26;99258.42;;;8.73;86.63
57885;BME280;43703;51.060;-0.086;2023-03-30T12:36:52;99271.71;;;8.64;88.83
57885;BME280;43703;51.060;-0.086;2023-03-30T12:39:18;99262.99;;;8.64;87.26
57885;BME280;43703;51.060;-0.086;2023-03-30T12:41:41;99261.77;;;8.22;87.67
57885;BME280;43703;51.060;-0.086;2023-03-30T12:44:23;99267.30;;;8.99;87.53
57885;BME280;43703;51.060;-0.086;2023-03-30T12:46:35;99260.52;;;8.92;87.94
57885;BME280;43703;51.060;-0.086;2023-03-30T12:49:02;99256.89;;;9.36;86.56
57885;BME280;43703;51.060;-0.086;2023-03-30T12:51:34;99249.71;;;9.75;83.41
57885;BME280;43703;51.060;-0.086;2023-03-30T12:53:59;99242.77;;;9.03;86.37
57885;BME280;43703;51.060;-0.086;2023-03-30T12:56:21;99238.64;;;9.01;84.47
57885;BME280;43703;51.060;-0.086;2023-03-30T12:58:51;99245.56;;;9.63;83.02
57885;BME280;43703;51.060;-0.086;2023-03-30T13:01:13;99248.02;;;9.05;84.29
57885;BME280;43703;51.060;-0.086;2023-03-30T13:03:34;99240.19;;;9.10;84.13